Time;durP1;ratioP1;P1;durP2;ratioP2;P2;SDS_P1;SDS_P2;PMS_P1;PMS_P2;Temp;Humidity;BMP_temperature;BMP_pressure;BME280_temperature;BME280_humidity;BME280_pressure;Samples;Min_cycle;Max_cycle;Signal;HPM_P1;HPM_P2
2022/12/31 00:01:07;;;;;;;1.20;1.10;;;;;;;11.61;94.39;99921.81;5025692;28;20223;-72
2022/12/31 00:03:33;;;;;;;1.37;1.10;;;;;;;11.55;94.11;99907.63;5023716;28;20195;-70
2022/12/31 00:06:00;;;;;;;4.37;1.10;;;;;;;11.66;93.92;99923.56;5027916;28;20273;-71
2022/12/31 00:08:26;;;;;;;3.27;1.10;;;;;;;11.68;93.64;99919.16;5009068;28;20215;-69
2022/12/31 00:10:53;;;;;;;1.10;1.00;;;;;;;11.69;93.69;99918.28;5007616;28;20250;-71
2022/12/31 00:13:20;;;;;;;2.60;1.07;;;;;;;11.75;93.60;99915.63;5026276;28;20222;-69
2022/12/31 00:15:46;;;;;;;1.93;1.00;;;;;;;11.70;93.20;99907.66;5026587;28;20644;-70
2022/12/31 00:18:12;;;;;;;2.07;1.00;;;;;;;11.76;93.58;99918.28;4998712;28;20219;-70
2022/12/31 00:20:40;;;;;;;1.17;0.90;;;;;;;11.85;93.31;99928.03;5026395;28;20203;-70
2022/12/31 00:23:08;;;;;;;2.07;1.07;;;;;;;11.88;93.35;99931.56;5026839;28;20212;-70
2022/12/31 00:25:35;;;;;;;1.77;1.03;;;;;;;11.91;92.83;99923.59;5025347;28;20203;-69
2022/12/31 00:28:03;;;;;;;0.73;0.73;;;;;;;11.96;92.87;99922.72;5027052;28;20292;-71
2022/12/31 00:30:30;;;;;;;1.10;1.00;;;;;;;11.92;92.90;99930.69;5024690;28;20253;-69
2022/12/31 00:32:56;;;;;;;1.10;0.90;;;;;;;11.95;92.96;99920.97;5025728;28;20218;-68
2022/12/31 00:35:23;;;;;;;1.13;1.00;;;;;;;11.83;92.59;99906.81;5025365;28;20714;-68
2022/12/31 00:37:51;;;;;;;2.03;1.00;;;;;;;11.96;92.82;99920.97;5010748;28;20309;-70
2022/12/31 00:40:17;;;;;;;1.87;0.80;;;;;;;12.05;92.78;99925.41;5023911;28;20245;-69
2022/12/31 00:42:43;;;;;;;0.90;0.80;;;;;;;12.06;92.71;99929.84;5027530;28;20207;-69
2022/12/31 00:45:10;;;;;;;1.00;0.80;;;;;;;12.09;92.23;99935.13;5031335;28;20231;-70
2022/12/31 00:47:36;;;;;;;0.70;0.70;;;;;;;12.04;91.88;99915.69;5029521;28;20897;-70
2022/12/31 00:50:03;;;;;;;1.30;0.80;;;;;;;12.20;91.68;99936.88;5031111;28;20222;-70
2022/12/31 00:52:29;;;;;;;1.10;0.90;;;;;;;12.24;91.16;99940.44;5029527;28;20202;-70
2022/12/31 00:54:56;;;;;;;1.90;0.90;;;;;;;12.27;91.37;99948.38;5031139;28;20227;-69
2022/12/31 00:57:23;;;;;;;1.87;0.70;;;;;;;12.30;91.07;99942.19;5027649;28;20254;-70
2022/12/31 00:59:49;;;;;;;0.80;0.77;;;;;;;12.28;91.33;99941.31;5028323;28;20211;-69
2022/12/31 01:02:15;;;;;;;0.90;0.70;;;;;;;12.34;90.60;99952.81;5030178;28;20708;-69
2022/12/31 01:04:43;;;;;;;1.80;0.70;;;;;;;12.41;90.56;99945.75;5030290;28;20238;-68
2022/12/31 01:07:09;;;;;;;2.00;0.80;;;;;;;12.44;90.30;99959.00;5027288;28;20227;-68
2022/12/31 01:09:36;;;;;;;0.70;0.70;;;;;;;12.49;90.31;99959.88;5029867;28;20219;-67
2022/12/31 01:12:02;;;;;;;1.10;0.73;;;;;;;12.49;90.04;99958.13;5030842;28;20192;-68
2022/12/31 01:14:31;;;;;;;0.93;0.60;;;;;;;12.53;89.42;99949.25;5027830;28;20734;-68
2022/12/31 01:16:57;;;;;;;0.67;0.50;;;;;;;12.65;89.57;99971.38;5029737;28;20251;-68
2022/12/31 01:19:28;;;;;;;1.23;0.60;;;;;;;12.60;89.65;99971.38;5021611;28;20196;-69
2022/12/31 01:21:55;;;;;;;2.23;0.60;;;;;;;12.60;89.86;99974.03;5028459;28;20204;-70
2022/12/31 01:24:22;;;;;;;0.80;0.53;;;;;;;12.66;89.63;99967.81;5030038;28;20196;-69
2022/12/31 01:26:49;;;;;;;0.60;0.60;;;;;;;12.71;89.56;99976.66;5029602;28;20223;-69
2022/12/31 01:29:15;;;;;;;0.50;0.50;;;;;;;12.73;88.97;99973.09;5027784;28;20195;-69
2022/12/31 01:31:42;;;;;;;0.63;0.60;;;;;;;12.79;88.83;99980.19;5030195;28;20211;-69
2022/12/31 01:34:08;;;;;;;0.60;0.60;;;;;;;12.74;88.92;99966.03;5021274;28;20243;-69
2022/12/31 01:36:36;;;;;;;1.33;0.60;;;;;;;12.82;88.82;99974.88;5028713;28;20219;-69
2022/12/31 01:39:04;;;;;;;0.53;0.53;;;;;;;12.79;88.50;99974.88;5026617;28;20278;-69
2022/12/31 01:41:34;;;;;;;0.50;0.50;;;;;;;12.80;88.45;99980.19;5030202;28;20223;-69
2022/12/31 01:44:23;;;;;;;1.40;0.70;;;;;;;12.87;88.38;99975.75;5029057;28;20675;-69
2022/12/31 01:46:57;;;;;;;0.50;0.50;;;;;;;12.93;87.92;99980.16;4990088;28;20272;-68
2022/12/31 01:49:57;;;;;;;0.60;0.60;;;;;;;12.90;88.13;99980.19;5029637;28;20199;-69
2022/12/31 01:52:29;;;;;;;1.20;0.70;;;;;;;12.95;88.00;99991.69;5025733;28;20248;-70
2022/12/31 01:55:02;;;;;;;0.70;0.57;;;;;;;12.93;87.75;99970.41;5028722;28;20230;-69
2022/12/31 01:57:29;;;;;;;1.03;0.60;;;;;;;13.07;86.84;99981.88;5027044;28;20215;-68
2022/12/31 01:59:58;;;;;;;1.73;0.67;;;;;;;13.10;86.64;99973.91;5028473;28;20231;-70
2022/12/31 02:02:25;;;;;;;2.93;0.70;;;;;;;13.16;86.47;99989.81;5029051;28;20210;-69
2022/12/31 02:04:56;;;;;;;1.00;0.70;;;;;;;13.21;86.27;99983.63;5029243;28;20513;-70
2022/12/31 02:07:23;;;;;;;0.90;0.70;;;;;;;13.22;86.06;99974.78;5029541;28;20734;-69
2022/12/31 02:09:50;;;;;;;0.70;0.60;;;;;;;13.09;86.34;99963.28;5027359;28;20291;-69
2022/12/31 02:12:17;;;;;;;0.83;0.80;;;;;;;13.06;86.70;99974.78;5023811;28;20196;-69
2022/12/31 02:14:47;;;;;;;0.77;0.70;;;;;;;13.15;86.53;99972.09;5027963;28;20247;-69
2022/12/31 02:17:42;;;;;;;0.67;0.67;;;;;;;13.06;86.53;99952.66;5028873;28;20226;-67
2022/12/31 02:20:23;;;;;;;2.60;0.77;;;;;;;13.11;86.21;99986.28;5029641;28;20199;-70
2022/12/31 02:23:32;;;;;;;0.93;0.70;;;;;;;13.11;86.41;99994.28;5028950;28;20203;-68
2022/12/31 02:26:07;;;;;;;1.03;0.70;;;;;;;13.28;85.67;99982.75;4990514;28;20200;-69
2022/12/31 02:28:52;;;;;;;0.70;0.70;;;;;;;13.29;85.68;99980.06;5028416;28;20226;-69
2022/12/31 02:31:24;;;;;;;1.13;0.83;;;;;;;13.33;85.45;99968.53;5025240;28;20203;-69
2022/12/31 02:33:59;;;;;;;1.07;0.73;;;;;;;13.32;85.56;99984.50;5028863;28;20219;-69
2022/12/31 02:36:31;;;;;;;1.90;0.80;;;;;;;13.31;85.14;99980.94;5029413;28;20211;-69
2022/12/31 02:38:58;;;;;;;0.90;0.80;;;;;;;13.26;85.32;99979.22;5019726;28;20196;-70
2022/12/31 02:44:28;;;;;;;1.30;0.87;;;;;;;13.44;84.60;99987.97;5023050;28;20326;-69
2022/12/31 02:47:18;;;;;;;1.40;0.87;;;;;;;13.52;83.96;99990.59;5024409;28;20227;-68
2022/12/31 02:50:03;;;;;;;1.70;0.90;;;;;;;13.62;83.52;100002.97;5026680;28;20202;-69
2022/12/31 02:52:47;;;;;;;2.83;0.93;;;;;;;13.70;83.26;99997.63;5026189;28;20206;-68
2022/12/31 02:55:23;;;;;;;1.17;0.87;;;;;;;13.70;83.20;99979.00;5023853;28;20262;-68
2022/12/31 02:58:09;;;;;;;3.13;1.00;;;;;;;13.76;83.10;99995.78;5025851;28;20837;-68
2022/12/31 03:03:26;;;;;;;2.40;1.00;;;;;;;13.73;82.88;100000.25;5028165;28;20198;-70
2022/12/31 03:05:55;;;;;;;2.00;1.10;;;;;;;13.72;82.97;99982.53;5026810;28;20195;-70
2022/12/31 03:08:23;;;;;;;1.80;1.10;;;;;;;13.76;82.72;99990.47;5056550;22;20254;-70
2022/12/31 03:10:50;;;;;;;2.00;1.00;;;;;;;13.77;82.94;99992.25;5044143;28;20237;-71
2022/12/31 03:13:16;;;;;;;1.83;1.00;;;;;;;13.80;82.72;99991.34;5045693;28;20685;-72
2022/12/31 03:15:43;;;;;;;1.10;1.00;;;;;;;13.73;82.71;99993.16;5047624;28;20198;-72
2022/12/31 03:18:12;;;;;;;1.23;1.10;;;;;;;13.74;82.81;99989.59;5043786;28;20241;-74
2022/12/31 03:23:41;;;;;;;1.30;1.20;;;;;;;13.85;81.98;99996.63;5047470;28;20266;-72
2022/12/31 03:26:10;;;;;;;1.57;1.10;;;;;;;13.91;81.57;99980.63;5030026;28;20194;-71
2022/12/31 03:28:46;;;;;;;1.37;1.17;;;;;;;13.87;81.79;99987.72;5038581;28;20237;-72
2022/12/31 03:31:12;;;;;;;2.57;1.10;;;;;;;13.87;81.90;99985.06;5031565;28;20237;-71
2022/12/31 03:33:40;;;;;;;2.37;1.23;;;;;;;13.82;81.46;99973.56;5044343;28;20306;-72
2022/12/31 03:36:13;;;;;;;1.70;1.17;;;;;;;13.83;81.59;99971.78;5045578;28;20192;-72
2022/12/31 03:38:40;;;;;;;3.83;1.20;;;;;;;13.94;81.40;99991.25;5043004;28;20214;-73
2022/12/31 03:41:09;;;;;;;2.80;1.10;;;;;;;13.99;81.18;100000.06;5047797;28;20264;-73
2022/12/31 03:43:36;;;;;;;1.90;1.13;;;;;;;13.94;81.19;100005.44;5047384;28;20691;-75
2022/12/31 03:46:02;;;;;;;4.23;1.10;;;;;;;14.00;81.09;100004.50;5042655;28;20227;-74
2022/12/31 03:48:28;;;;;;;1.47;1.07;;;;;;;13.96;81.46;100006.31;5028330;28;20218;-73
2022/12/31 03:50:55;;;;;;;1.67;1.10;;;;;;;13.89;81.44;100001.03;5037045;28;20199;-73
2022/12/31 03:53:21;;;;;;;1.67;1.10;;;;;;;13.97;81.68;100013.41;5043584;28;20191;-74
2022/12/31 03:55:54;;;;;;;3.77;1.10;;;;;;;13.99;81.64;100014.28;5044428;28;20234;-72
2022/12/31 03:58:20;;;;;;;1.10;1.00;;;;;;;13.97;81.68;100012.50;5036577;28;20353;-72
2022/12/31 04:00:47;;;;;;;2.13;1.00;;;;;;;13.98;81.52;100012.50;5045374;28;20220;-74
2022/12/31 04:03:14;;;;;;;1.17;1.07;;;;;;;13.97;81.43;100002.75;5044667;28;20195;-73
2022/12/31 04:05:40;;;;;;;1.57;1.00;;;;;;;14.01;81.34;100009.84;5044915;28;20198;-73
2022/12/31 04:08:07;;;;;;;1.23;1.00;;;;;;;14.10;81.15;100015.09;5042532;28;20258;-73
2022/12/31 04:10:33;;;;;;;1.83;1.27;;;;;;;13.99;81.60;100027.59;5046993;28;20207;-73
2022/12/31 04:13:03;;;;;;;1.50;1.07;;;;;;;14.02;81.34;100027.59;5046950;28;20326;-72
2022/12/31 04:15:29;;;;;;;1.90;1.40;;;;;;;14.00;81.92;100028.47;5045988;28;20298;-71
2022/12/31 04:17:55;;;;;;;1.63;1.30;;;;;;;13.97;81.88;100028.50;5049137;28;20556;-72
2022/12/31 04:20:22;;;;;;;2.37;1.23;;;;;;;14.08;81.43;100037.31;5052146;28;20580;-71
2022/12/31 04:22:48;;;;;;;2.00;1.40;;;;;;;14.02;82.01;100030.25;5062389;28;20211;-72
2022/12/31 04:25:14;;;;;;;2.30;1.33;;;;;;;14.07;81.35;100046.19;5050625;28;20205;-71
2022/12/31 04:27:42;;;;;;;2.57;1.30;;;;;;;14.09;81.39;100042.63;5051447;28;20263;-70
2022/12/31 04:30:09;;;;;;;3.73;1.37;;;;;;;14.06;81.49;100033.78;5044305;28;20278;-71
2022/12/31 04:32:36;;;;;;;2.07;1.40;;;;;;;14.04;81.45;100027.59;5046642;28;20627;-71
2022/12/31 04:35:02;;;;;;;1.90;1.30;;;;;;;14.01;81.58;100041.81;5051193;28;20229;-72
2022/12/31 04:37:28;;;;;;;1.60;1.20;;;;;;;13.97;81.65;100048.00;5051374;28;20276;-73
2022/12/31 04:39:55;;;;;;;5.10;1.47;;;;;;;14.02;81.35;100042.69;5052042;28;20645;-73
2022/12/31 04:42:30;;;;;;;3.53;1.60;;;;;;;13.94;81.51;100032.06;5049848;28;20226;-75
2022/12/31 04:44:56;;;;;;;1.73;1.30;;;;;;;14.05;81.39;100056.84;5056822;28;20195;-76
2022/12/31 04:47:23;;;;;;;2.00;1.30;;;;;;;14.03;81.21;100061.31;5047620;28;20210;-77
2022/12/31 04:49:49;;;;;;;2.87;1.47;;;;;;;14.05;80.87;100032.91;5047887;28;20230;-75
2022/12/31 04:52:16;;;;;;;1.67;1.40;;;;;;;14.15;80.70;100057.69;5050017;28;20199;-75
2022/12/31 04:54:42;;;;;;;3.23;1.60;;;;;;;14.08;80.77;100063.94;5030227;28;20254;-76
2022/12/31 04:57:08;;;;;;;2.17;1.30;;;;;;;14.21;79.96;100068.28;5047969;28;20223;-77
2022/12/31 04:59:34;;;;;;;2.67;1.70;;;;;;;14.17;80.86;100071.00;5043080;28;20258;-77
2022/12/31 05:02:01;;;;;;;2.00;1.40;;;;;;;14.18;80.56;100086.06;5041486;28;20248;-76
2022/12/31 05:04:28;;;;;;;3.77;1.43;;;;;;;14.25;80.49;100071.81;5049248;28;20195;-77
2022/12/31 05:06:54;;;;;;;1.77;1.40;;;;;;;14.22;80.41;100064.72;5051142;28;20227;-76
2022/12/31 05:09:22;;;;;;;1.70;1.37;;;;;;;14.32;79.99;100084.19;5051317;28;20203;-77
2022/12/31 05:11:49;;;;;;;3.57;1.30;;;;;;;14.20;79.88;100071.84;5051917;28;20286;-76
2022/12/31 05:14:16;;;;;;;2.17;1.43;;;;;;;14.26;80.30;100086.91;5046572;28;20309;-76
2022/12/31 05:16:42;;;;;;;1.20;1.10;;;;;;;14.23;80.43;100086.91;5049603;28;20191;-77
2022/12/31 05:19:08;;;;;;;2.40;1.20;;;;;;;14.25;80.31;100083.34;5050466;28;20278;-75
2022/12/31 05:21:35;;;;;;;4.60;1.13;;;;;;;14.36;79.37;100091.25;5051781;28;20260;-76
2022/12/31 05:24:01;;;;;;;3.53;1.20;;;;;;;14.46;79.51;100095.69;5046753;28;20195;-73
2022/12/31 05:26:28;;;;;;;1.87;1.10;;;;;;;14.44;79.39;100094.81;5049281;28;20226;-76
2022/12/31 05:28:55;;;;;;;2.20;1.10;;;;;;;14.36;79.83;100085.94;5048533;28;20230;-76
2022/12/31 05:31:21;;;;;;;1.40;1.10;;;;;;;14.35;79.97;100093.03;5051243;28;20199;-76
2022/12/31 05:33:48;;;;;;;1.87;1.20;;;;;;;14.29;80.26;100098.41;5047805;28;20265;-74
2022/12/31 05:36:14;;;;;;;1.50;1.17;;;;;;;14.39;80.04;100093.91;5051961;28;20202;-73
2022/12/31 05:38:41;;;;;;;1.80;1.17;;;;;;;14.41;79.95;100097.47;5048298;28;20772;-73
2022/12/31 05:41:07;;;;;;;1.63;1.27;;;;;;;14.38;79.92;100092.13;5033719;28;20199;-76
2022/12/31 05:43:33;;;;;;;2.63;1.10;;;;;;;14.38;79.68;100092.13;5050082;28;20206;-75
2022/12/31 05:46:01;;;;;;;1.43;1.20;;;;;;;14.33;79.94;100092.16;5056265;28;20290;-75
2022/12/31 05:48:28;;;;;;;2.23;1.10;;;;;;;14.39;80.04;100099.22;5043954;28;20223;-73
2022/12/31 05:50:55;;;;;;;1.73;1.07;;;;;;;14.37;79.84;100098.34;5032822;28;20206;-73
2022/12/31 05:53:21;;;;;;;2.60;1.03;;;;;;;14.30;79.92;100081.53;5049656;28;20681;-74
2022/12/31 05:55:48;;;;;;;2.23;1.23;;;;;;;14.38;80.12;100102.78;5049817;28;20230;-69
2022/12/31 05:58:15;;;;;;;1.47;1.00;;;;;;;14.40;79.95;100099.22;5042948;28;20217;-69
2022/12/31 06:00:41;;;;;;;1.83;1.20;;;;;;;14.45;79.61;100106.38;5044890;28;20195;-71
2022/12/31 06:03:08;;;;;;;1.83;1.10;;;;;;;14.46;79.37;100105.47;5047418;28;20663;-70
2022/12/31 06:05:38;;;;;;;1.70;1.23;;;;;;;14.40;79.53;100112.53;5051056;28;20187;-73
2022/12/31 06:08:04;;;;;;;1.73;1.20;;;;;;;14.58;78.83;100116.91;5046648;28;20282;-70
2022/12/31 06:10:30;;;;;;;6.00;1.30;;;;;;;14.60;78.29;100122.22;5050681;28;20202;-71
2022/12/31 06:12:57;;;;;;;2.93;1.20;;;;;;;14.60;78.35;100122.22;5049267;28;20209;-71
2022/12/31 06:15:23;;;;;;;2.87;1.23;;;;;;;14.67;78.05;100135.50;5049936;28;20246;-71
2022/12/31 06:17:49;;;;;;;2.70;1.23;;;;;;;14.63;78.28;100131.09;5048602;28;20218;-70
2022/12/31 06:20:16;;;;;;;3.93;1.20;;;;;;;14.58;78.50;100129.34;5049559;28;20218;-69
2022/12/31 06:22:43;;;;;;;1.60;1.03;;;;;;;14.57;78.42;100141.78;5049498;28;20194;-69
2022/12/31 06:25:09;;;;;;;2.23;1.10;;;;;;;14.62;78.24;100134.66;5037418;28;20245;-68
2022/12/31 06:27:35;;;;;;;3.10;1.00;;;;;;;14.59;78.58;100133.78;5046800;28;20222;-67
2022/12/31 06:30:02;;;;;;;3.37;1.40;;;;;;;14.61;78.48;100126.66;5039786;28;20199;-69
2022/12/31 06:32:28;;;;;;;1.80;1.10;;;;;;;14.69;78.33;100140.81;5027852;28;20199;-70
2022/12/31 06:34:55;;;;;;;2.13;1.23;;;;;;;14.72;78.04;100140.78;5048919;28;21555;-70
2022/12/31 06:37:21;;;;;;;1.83;1.10;;;;;;;14.75;78.14;100148.75;5050739;28;20268;-69
2022/12/31 06:39:47;;;;;;;1.53;1.30;;;;;;;14.82;77.86;100144.28;5030523;28;20228;-69
2022/12/31 06:42:14;;;;;;;3.00;1.07;;;;;;;14.83;77.85;100140.72;5042917;28;20237;-67
2022/12/31 06:44:40;;;;;;;1.07;0.90;;;;;;;14.85;77.79;100141.59;5049479;28;20215;-66
2022/12/31 06:47:06;;;;;;;2.93;1.40;;;;;;;14.81;77.83;100151.41;5047684;28;20222;-67
2022/12/31 06:49:33;;;;;;;2.73;1.10;;;;;;;14.83;77.71;100144.28;5047503;28;20199;-67
2022/12/31 06:51:59;;;;;;;3.73;1.70;;;;;;;14.86;77.46;100130.94;5031118;28;20307;-67
2022/12/31 06:54:25;;;;;;;2.20;1.10;;;;;;;14.82;77.70;100129.19;5049450;28;20219;-68
2022/12/31 06:56:52;;;;;;;1.57;1.17;;;;;;;14.80;77.70;100140.72;5047070;28;20223;-66
2022/12/31 06:59:28;;;;;;;1.00;0.90;;;;;;;14.87;77.52;100140.69;5047729;28;20245;-66
2022/12/31 07:02:19;;;;;;;2.10;0.90;;;;;;;14.89;77.77;100148.69;5041342;28;20285;-66
2022/12/31 07:04:51;;;;;;;1.63;1.10;;;;;;;14.99;77.72;100151.25;5048041;28;20277;-67
2022/12/31 07:07:39;;;;;;;1.67;1.07;;;;;;;14.98;77.29;100151.25;5040666;28;20696;-66
2022/12/31 07:10:34;;;;;;;3.93;1.40;;;;;;;15.11;76.46;100152.03;5047918;28;20202;-66
2022/12/31 07:13:35;;;;;;;1.20;0.90;;;;;;;15.06;76.92;100152.06;5048891;28;20909;-67
2022/12/31 07:16:10;;;;;;;1.67;1.10;;;;;;;15.07;76.75;100159.19;5045069;28;20882;-67
2022/12/31 07:18:48;;;;;;;3.20;1.40;;;;;;;15.13;76.52;100168.91;5046135;28;20306;-67
2022/12/31 07:21:18;;;;;;;1.50;1.00;;;;;;;15.11;76.54;100170.69;5049284;28;20237;-68
2022/12/31 07:23:44;;;;;;;1.27;0.93;;;;;;;15.11;76.61;100176.03;5040610;28;20687;-67
2022/12/31 07:26:39;;;;;;;1.47;1.00;;;;;;;15.12;76.59;100172.47;5030731;28;20195;-67
2022/12/31 07:29:18;;;;;;;1.70;1.00;;;;;;;15.08;76.59;100184.06;5047055;28;20472;-67
2022/12/31 07:32:19;;;;;;;2.77;1.00;;;;;;;15.16;76.18;100179.53;5048790;28;20714;-66
2022/12/31 07:35:07;;;;;;;1.57;0.93;;;;;;;15.16;75.93;100175.09;5045819;28;20313;-66
2022/12/31 07:37:52;;;;;;;4.40;1.30;;;;;;;15.12;76.37;100177.81;5045659;28;20215;-67
2022/12/31 07:40:27;;;;;;;2.57;1.10;;;;;;;15.13;76.27;100176.91;5048894;28;20199;-67
2022/12/31 07:43:30;;;;;;;2.77;1.37;;;;;;;15.16;75.89;100183.09;5047029;28;20206;-68
2022/12/31 07:46:14;;;;;;;1.27;0.97;;;;;;;15.12;75.84;100186.69;5047202;28;20225;-67
2022/12/31 07:48:41;;;;;;;2.50;1.10;;;;;;;15.10;76.01;100184.94;5047037;28;20269;-68
2022/12/31 07:51:09;;;;;;;1.00;0.90;;;;;;;15.07;76.46;100192.97;5045472;28;20230;-66
2022/12/31 07:53:36;;;;;;;4.13;1.10;;;;;;;15.02;76.44;100195.69;5029938;28;20206;-68
2022/12/31 07:56:06;;;;;;;3.20;1.20;;;;;;;15.02;76.38;100201.00;5048077;28;20318;-67
2022/12/31 07:58:38;;;;;;;1.50;1.10;;;;;;;15.02;76.24;100195.69;5048625;28;20269;-67
2022/12/31 08:01:11;;;;;;;2.70;1.13;;;;;;;15.00;76.24;100201.03;5047389;28;20261;-66
2022/12/31 08:03:53;;;;;;;1.97;1.27;;;;;;;15.02;76.26;100201.00;5047231;28;20478;-67
2022/12/31 08:06:30;;;;;;;5.10;1.20;;;;;;;15.00;76.20;100213.47;5045677;28;20679;-68
2022/12/31 08:09:24;;;;;;;1.47;1.10;;;;;;;15.01;75.72;100213.47;5045500;28;20245;-67
2022/12/31 08:11:58;;;;;;;2.17;1.30;;;;;;;14.93;76.18;100223.31;5046919;28;20191;-66
2022/12/31 08:14:27;;;;;;;1.40;1.20;;;;;;;14.94;76.23;100219.75;5047966;28;20528;-68
2022/12/31 08:16:54;;;;;;;2.77;1.67;;;;;;;14.93;76.30;100219.75;5046698;28;20219;-67
2022/12/31 08:19:29;;;;;;;3.50;1.43;;;;;;;14.96;75.94;100214.41;5046518;28;20225;-68
2022/12/31 08:22:26;;;;;;;2.43;1.30;;;;;;;14.90;76.07;100211.78;5046736;28;20229;-68
2022/12/31 08:25:15;;;;;;;3.53;1.57;;;;;;;14.93;75.86;100220.63;5045708;28;20199;-67
2022/12/31 08:28:06;;;;;;;4.37;1.70;;;;;;;14.98;75.77;100218.81;5047479;28;20702;-67
2022/12/31 08:30:59;;;;;;;2.70;1.50;;;;;;;14.94;75.66;100218.84;5048347;28;20285;-69
2022/12/31 08:33:40;;;;;;;3.20;1.67;;;;;;;14.97;75.43;100218.81;5048438;28;20191;-68
2022/12/31 08:36:40;;;;;;;4.33;1.60;;;;;;;14.96;75.53;100227.72;5054958;28;20210;-68
2022/12/31 08:39:37;;;;;;;1.67;1.40;;;;;;;14.92;75.23;100221.53;5047684;28;20233;-67
2022/12/31 08:42:16;;;;;;;3.50;1.70;;;;;;;14.96;75.10;100227.72;5045903;28;20552;-66
2022/12/31 08:44:58;;;;;;;2.10;1.50;;;;;;;14.96;75.35;100228.63;5043873;28;20230;-66
2022/12/31 08:47:46;;;;;;;2.50;1.53;;;;;;;15.01;75.27;100237.47;5048144;28;20219;-68
2022/12/31 08:50:17;;;;;;;4.30;1.57;;;;;;;15.04;74.62;100240.09;5045650;28;20263;-67
2022/12/31 08:52:44;;;;;;;1.90;1.37;;;;;;;14.95;75.38;100228.63;5040474;28;20321;-67
2022/12/31 08:55:16;;;;;;;3.20;1.57;;;;;;;15.05;74.83;100239.22;5044288;28;20230;-68
2022/12/31 08:58:07;;;;;;;3.80;1.60;;;;;;;15.05;74.92;100249.88;4994198;28;20280;-71
2022/12/31 09:00:36;;;;;;;2.17;1.50;;;;;;;15.00;74.46;100230.34;5047611;28;20191;-68
2022/12/31 09:03:21;;;;;;;3.80;1.40;;;;;;;15.13;74.06;100249.81;5049901;28;20190;-69
2022/12/31 09:05:57;;;;;;;2.10;1.53;;;;;;;15.17;74.06;100259.56;5063666;28;20203;-70
2022/12/31 09:08:44;;;;;;;2.03;1.50;;;;;;;15.21;73.95;100257.75;5059478;23;20691;-70
2022/12/31 09:11:31;;;;;;;3.27;1.80;;;;;;;15.17;73.66;100248.00;5023983;28;20274;-70
2022/12/31 09:14:03;;;;;;;3.80;1.63;;;;;;;15.21;73.96;100255.09;5030253;28;20251;-69
2022/12/31 09:17:03;;;;;;;4.70;1.60;;;;;;;15.24;73.74;100255.97;5030718;28;20234;-70
2022/12/31 09:19:29;;;;;;;2.57;1.60;;;;;;;15.31;73.38;100264.81;5005688;28;20690;-69
2022/12/31 09:21:56;;;;;;;2.10;1.43;;;;;;;15.37;73.19;100267.44;5023190;28;20956;-68
2022/12/31 09:24:22;;;;;;;4.93;1.60;;;;;;;15.31;73.14;100259.47;5009602;28;21750;-69
2022/12/31 09:27:01;;;;;;;6.33;1.80;;;;;;;15.30;73.25;100273.72;5005023;28;20196;-69
2022/12/31 09:29:42;;;;;;;4.63;1.90;;;;;;;15.32;72.96;100271.91;5009979;28;20262;-68
2022/12/31 09:32:28;;;;;;;3.00;1.63;;;;;;;15.36;72.81;100271.00;5010540;28;20660;-69
2022/12/31 09:35:02;;;;;;;2.70;1.67;;;;;;;15.33;72.64;100279.03;5007397;28;20223;-66
2022/12/31 09:37:41;;;;;;;2.20;1.40;;;;;;;15.44;72.61;100285.16;5005744;28;20265;-69
2022/12/31 09:40:39;;;;;;;2.77;1.50;;;;;;;15.52;72.52;100280.63;5010422;28;20210;-69
2022/12/31 09:43:26;;;;;;;3.20;1.53;;;;;;;15.61;71.77;100283.28;5010855;28;20358;-68
2022/12/31 09:46:21;;;;;;;3.10;1.67;;;;;;;15.65;71.58;100284.13;5008885;28;20675;-69
2022/12/31 09:49:15;;;;;;;2.33;1.33;;;;;;;15.66;71.58;100285.91;5007519;28;20343;-70
2022/12/31 09:51:41;;;;;;;3.27;1.50;;;;;;;15.66;71.65;100269.88;5002061;28;20200;-69
2022/12/31 09:54:27;;;;;;;2.47;1.60;;;;;;;15.65;71.39;100282.34;5003862;28;20200;-69
2022/12/31 09:57:00;;;;;;;2.77;1.50;;;;;;;15.69;71.16;100290.34;5009031;28;20262;-70
2022/12/31 09:59:39;;;;;;;2.30;1.50;;;;;;;15.63;71.07;100292.16;5005000;28;20203;-69
2022/12/31 10:02:26;;;;;;;2.70;1.70;;;;;;;15.71;71.27;100305.44;5005422;28;20257;-69
2022/12/31 10:05:31;;;;;;;2.10;1.40;;;;;;;15.83;70.51;100291.09;5005498;28;20206;-69
2022/12/31 10:08:09;;;;;;;3.80;1.83;;;;;;;15.84;70.31;100299.06;5003498;28;20318;-68
2022/12/31 10:10:50;;;;;;;2.40;1.43;;;;;;;15.99;69.71;100295.34;5004708;28;20280;-68
2022/12/31 10:13:47;;;;;;;1.60;1.30;;;;;;;16.04;69.30;100314.03;5007982;28;20224;-69
2022/12/31 10:16:50;;;;;;;1.67;1.30;;;;;;;16.03;69.58;100305.13;5006354;28;20306;-70
2022/12/31 10:19:41;;;;;;;1.87;1.57;;;;;;;15.93;69.78;100309.66;5008717;28;20220;-70
2022/12/31 10:22:44;;;;;;;1.60;1.23;;;;;;;15.85;70.03;100305.31;5006385;28;20751;-69
2022/12/31 10:25:20;;;;;;;3.77;1.77;;;;;;;15.91;69.72;100310.59;5001390;28;20294;-70
2022/12/31 10:28:21;;;;;;;4.90;1.70;;;;;;;15.93;69.88;100300.75;5008944;28;20223;-68
2022/12/31 10:31:14;;;;;;;2.60;1.57;;;;;;;15.97;69.66;100305.19;4973138;28;20231;-70
2022/12/31 10:34:01;;;;;;;3.60;1.50;;;;;;;16.20;69.13;100315.63;5006928;28;20203;-69
2022/12/31 10:36:30;;;;;;;1.93;1.50;;;;;;;16.49;68.06;100307.31;5007016;28;20612;-69
2022/12/31 10:39:10;;;;;;;4.17;1.40;;;;;;;16.69;67.38;100302.59;5007185;28;20274;-69
2022/12/31 10:42:04;;;;;;;2.10;1.70;;;;;;;16.90;66.85;100306.81;5005818;28;20200;-69
2022/12/31 10:44:46;;;;;;;3.73;1.50;;;;;;;17.02;65.86;100309.28;5007304;28;20192;-70
2022/12/31 10:47:18;;;;;;;2.13;1.53;;;;;;;17.09;66.03;100302.06;5008677;28;20209;-69
2022/12/31 10:50:09;;;;;;;2.97;1.67;;;;;;;17.14;65.96;100311.78;5006527;28;20196;-70
2022/12/31 10:52:48;;;;;;;3.43;1.50;;;;;;;17.17;65.51;100302.81;5006312;28;20583;-69
2022/12/31 10:55:44;;;;;;;2.87;1.40;;;;;;;17.21;65.48;100302.78;5007397;28;20684;-69
2022/12/31 10:58:33;;;;;;;2.70;1.47;;;;;;;17.14;65.22;100289.50;5008191;28;20641;-69
2022/12/31 11:01:20;;;;;;;4.53;1.50;;;;;;;17.23;65.17;100317.03;5008563;28;20200;-67
2022/12/31 11:04:20;;;;;;;3.30;1.40;;;;;;;17.21;65.02;100315.25;5004557;28;20284;-69
2022/12/31 11:07:16;;;;;;;2.83;1.50;;;;;;;17.09;65.13;100324.34;5001783;28;20503;-68
2022/12/31 11:10:11;;;;;;;5.40;1.60;;;;;;;17.04;65.37;100312.84;5004817;28;20196;-71
2022/12/31 11:12:51;;;;;;;2.73;1.63;;;;;;;17.07;65.24;100315.47;5005557;28;20518;-67
2022/12/31 11:15:37;;;;;;;2.50;1.47;;;;;;;16.99;65.27;100319.16;5005988;28;20200;-70
2022/12/31 11:18:14;;;;;;;5.03;1.90;;;;;;;17.06;65.23;100324.41;5002010;28;20227;-70
2022/12/31 11:21:03;;;;;;;4.03;1.60;;;;;;;17.04;65.43;100323.53;5003760;28;20204;-70
2022/12/31 11:24:13;;;;;;;3.80;1.50;;;;;;;17.00;65.24;100318.25;5009611;28;20199;-70
2022/12/31 11:26:57;;;;;;;3.97;1.53;;;;;;;17.13;64.98;100317.16;5006375;28;20196;-70
2022/12/31 11:29:42;;;;;;;1.70;1.40;;;;;;;17.22;64.76;100323.28;5004701;28;20679;-70
2022/12/31 11:32:23;;;;;;;2.87;1.80;;;;;;;17.25;64.19;100326.81;5007499;28;20672;-67
2022/12/31 11:34:57;;;;;;;1.87;1.50;;;;;;;17.14;63.90;100309.09;5005164;28;20277;-70
2022/12/31 11:37:39;;;;;;;3.40;1.90;;;;;;;17.30;63.83;100322.28;5005848;28;20216;-70
2022/12/31 11:40:31;;;;;;;5.90;1.60;;;;;;;17.37;63.71;100323.97;5006924;28;20231;-70
2022/12/31 11:43:03;;;;;;;2.53;1.70;;;;;;;17.25;63.73;100306.31;4988859;28;20200;-71
2022/12/31 11:45:52;;;;;;;3.90;1.87;;;;;;;17.37;63.42;100311.47;5004486;28;20710;-72
2022/12/31 11:48:31;;;;;;;5.17;1.70;;;;;;;17.39;63.13;100314.09;5007884;28;20216;-69
2022/12/31 11:51:09;;;;;;;4.43;1.70;;;;;;;17.40;62.55;100316.75;5006362;28;20196;-67
2022/12/31 11:53:56;;;;;;;3.63;1.80;;;;;;;17.47;62.61;100304.16;5001585;28;20251;-68
2022/12/31 11:56:27;;;;;;;3.37;1.53;;;;;;;17.41;62.64;100310.50;5006875;28;20228;-70
2022/12/31 11:58:55;;;;;;;3.40;1.60;;;;;;;17.47;62.49;100297.00;5005761;28;20252;-68
2022/12/31 12:01:31;;;;;;;2.90;1.60;;;;;;;17.50;62.62;100299.63;5007688;28;20192;-68
2022/12/31 12:03:58;;;;;;;2.40;1.47;;;;;;;17.64;62.06;100301.22;5007854;28;20675;-69
2022/12/31 12:06:29;;;;;;;3.70;1.60;;;;;;;17.61;61.82;100307.50;5005462;28;20192;-69
2022/12/31 12:09:02;;;;;;;5.30;1.63;;;;;;;17.55;61.95;100300.44;5005547;28;20317;-73